sensor_id;sensor_type;location;lat;lon;timestamp;pressure;altitude;pressure_sealevel;temperature;humidity
73106;BME280;61559;50.476;15.588;2022-12-13T00:01:47;97113.66;;;-3.69;73.67
73106;BME280;61559;50.476;15.588;2022-12-13T00:04:21;97113.74;;;-3.67;73.94
73106;BME280;61559;50.476;15.588;2022-12-13T00:06:53;97112.08;;;-3.65;73.90
73106;BME280;61559;50.476;15.588;2022-12-13T00:09:24;97110.41;;;-3.65;74.05
73106;BME280;61559;50.476;15.588;2022-12-13T00:11:54;97108.21;;;-3.64;74.19
73106;BME280;61559;50.476;15.588;2022-12-13T00:14:26;97115.36;;;-3.61;74.34
73106;BME280;61559;50.476;15.588;2022-12-13T00:16:56;97119.21;;;-3.60;74.52
73106;BME280;61559;50.476;15.588;2022-12-13T00:19:27;97120.12;;;-3.57;74.47
73106;BME280;61559;50.476;15.588;2022-12-13T00:21:58;97119.71;;;-3.54;74.24
73106;BME280;61559;50.476;15.588;2022-12-13T00:24:29;97116.87;;;-3.53;74.31
73106;BME280;61559;50.476;15.588;2022-12-13T00:27:01;97115.25;;;-3.50;74.31
73106;BME280;61559;50.476;15.588;2022-12-13T00:29:32;97111.55;;;-3.49;74.23
73106;BME280;61559;50.476;15.588;2022-12-13T00:32:03;97112.98;;;-3.47;74.26
73106;BME280;61559;50.476;15.588;2022-12-13T00:34:34;97106.45;;;-3.46;74.36
73106;BME280;61559;50.476;15.588;2022-12-13T00:37:05;97110.27;;;-3.47;74.28
73106;BME280;61559;50.476;15.588;2022-12-13T00:39:36;97112.14;;;-3.49;73.93
73106;BME280;61559;50.476;15.588;2022-12-13T00:42:07;97110.73;;;-3.53;73.75
73106;BME280;61559;50.476;15.588;2022-12-13T00:44:39;97110.86;;;-3.57;73.88
73106;BME280;61559;50.476;15.588;2022-12-13T00:47:10;97114.55;;;-3.59;74.06
73106;BME280;61559;50.476;15.588;2022-12-13T00:49:41;97116.39;;;-3.60;74.08
73106;BME280;61559;50.476;15.588;2022-12-13T00:52:12;97118.35;;;-3.63;74.12
73106;BME280;61559;50.476;15.588;2022-12-13T00:54:43;97119.82;;;-3.65;74.62
73106;BME280;61559;50.476;15.588;2022-12-13T00:57:15;97125.97;;;-3.67;74.60
73106;BME280;61559;50.476;15.588;2022-12-13T00:59:46;97123.20;;;-3.68;74.77
73106;BME280;61559;50.476;15.588;2022-12-13T01:02:17;97125.30;;;-3.71;74.37
73106;BME280;61559;50.476;15.588;2022-12-13T01:04:50;97127.21;;;-3.73;74.43
73106;BME280;61559;50.476;15.588;2022-12-13T01:07:24;97123.66;;;-3.75;74.14
73106;BME280;61559;50.476;15.588;2022-12-13T01:09:54;97121.70;;;-3.78;73.71
73106;BME280;61559;50.476;15.588;2022-12-13T01:12:27;97123.50;;;-3.81;72.74
73106;BME280;61559;50.476;15.588;2022-12-13T01:14:58;97124.36;;;-3.83;72.62
73106;BME280;61559;50.476;15.588;2022-12-13T01:17:29;97123.89;;;-3.85;72.92
73106;BME280;61559;50.476;15.588;2022-12-13T01:20:00;97121.88;;;-3.85;72.83
73106;BME280;61559;50.476;15.588;2022-12-13T01:22:32;97122.50;;;-3.83;73.22
73106;BME280;61559;50.476;15.588;2022-12-13T01:25:03;97118.32;;;-3.83;72.98
73106;BME280;61559;50.476;15.588;2022-12-13T01:27:34;97112.95;;;-3.86;72.34
73106;BME280;61559;50.476;15.588;2022-12-13T01:30:07;97112.42;;;-3.89;72.56
73106;BME280;61559;50.476;15.588;2022-12-13T01:32:38;97108.67;;;-3.91;72.90
73106;BME280;61559;50.476;15.588;2022-12-13T01:35:10;97112.88;;;-3.90;73.22
73106;BME280;61559;50.476;15.588;2022-12-13T01:37:42;97111.36;;;-3.87;73.55
73106;BME280;61559;50.476;15.588;2022-12-13T01:40:14;97112.16;;;-3.85;73.54
73106;BME280;61559;50.476;15.588;2022-12-13T01:42:45;97098.73;;;-3.85;73.69
73106;BME280;61559;50.476;15.588;2022-12-13T01:45:23;97102.34;;;-3.80;73.95
73106;BME280;61559;50.476;15.588;2022-12-13T01:47:57;97103.36;;;-3.77;73.87
73106;BME280;61559;50.476;15.588;2022-12-13T01:50:33;97100.80;;;-3.74;73.81
73106;BME280;61559;50.476;15.588;2022-12-13T01:53:06;97095.19;;;-3.72;73.77
73106;BME280;61559;50.476;15.588;2022-12-13T01:55:40;97098.20;;;-3.70;73.86
73106;BME280;61559;50.476;15.588;2022-12-13T01:58:13;97098.70;;;-3.70;73.94
73106;BME280;61559;50.476;15.588;2022-12-13T02:00:45;97102.61;;;-3.68;74.01
73106;BME280;61559;50.476;15.588;2022-12-13T02:03:18;97097.33;;;-3.65;74.25
73106;BME280;61559;50.476;15.588;2022-12-13T02:05:55;97098.73;;;-3.62;74.24
73106;BME280;61559;50.476;15.588;2022-12-13T02:08:29;97099.54;;;-3.59;74.40
73106;BME280;61559;50.476;15.588;2022-12-13T02:11:05;97093.55;;;-3.56;74.41
73106;BME280;61559;50.476;15.588;2022-12-13T02:13:39;97095.70;;;-3.57;74.16
73106;BME280;61559;50.476;15.588;2022-12-13T02:16:13;97100.77;;;-3.58;74.25
73106;BME280;61559;50.476;15.588;2022-12-13T02:19:02;97104.71;;;-3.57;74.37
73106;BME280;61559;50.476;15.588;2022-12-13T02:21:48;97102.40;;;-3.57;74.53
73106;BME280;61559;50.476;15.588;2022-12-13T02:24:55;97103.48;;;-3.58;74.42
73106;BME280;61559;50.476;15.588;2022-12-13T02:27:44;97106.11;;;-3.57;74.58
73106;BME280;61559;50.476;15.588;2022-12-13T02:30:24;97105.02;;;-3.55;74.55
73106;BME280;61559;50.476;15.588;2022-12-13T02:33:19;97104.49;;;-3.52;74.50
73106;BME280;61559;50.476;15.588;2022-12-13T02:36:00;97103.68;;;-3.56;74.21
73106;BME280;61559;50.476;15.588;2022-12-13T02:38:38;97101.99;;;-3.63;75.29
73106;BME280;61559;50.476;15.588;2022-12-13T02:41:18;97104.23;;;-3.68;76.09
73106;BME280;61559;50.476;15.588;2022-12-13T02:43:56;97101.20;;;-3.71;76.46
73106;BME280;61559;50.476;15.588;2022-12-13T02:46:34;97095.95;;;-3.74;76.64
73106;BME280;61559;50.476;15.588;2022-12-13T02:49:08;97089.60;;;-3.78;76.93
73106;BME280;61559;50.476;15.588;2022-12-13T02:51:39;97091.22;;;-3.81;76.98
73106;BME280;61559;50.476;15.588;2022-12-13T02:54:11;97093.86;;;-3.81;77.21
73106;BME280;61559;50.476;15.588;2022-12-13T02:56:51;97095.63;;;-3.83;77.22
73106;BME280;61559;50.476;15.588;2022-12-13T02:59:25;97100.91;;;-3.84;77.67
73106;BME280;61559;50.476;15.588;2022-12-13T03:02:06;97101.31;;;-3.86;77.77
73106;BME280;61559;50.476;15.588;2022-12-13T03:04:47;97102.94;;;-3.88;77.93
73106;BME280;61559;50.476;15.588;2022-12-13T03:07:41;97103.55;;;-3.91;78.31
73106;BME280;61559;50.476;15.588;2022-12-13T03:10:17;97102.67;;;-3.95;78.63
73106;BME280;61559;50.476;15.588;2022-12-13T03:12:55;97102.56;;;-3.98;78.80
73106;BME280;61559;50.476;15.588;2022-12-13T03:15:52;97100.84;;;-3.98;78.82
73106;BME280;61559;50.476;15.588;2022-12-13T03:18:26;97102.48;;;-3.99;79.01
73106;BME280;61559;50.476;15.588;2022-12-13T03:21:00;97107.14;;;-4.00;79.07
73106;BME280;61559;50.476;15.588;2022-12-13T03:23:31;97101.86;;;-4.03;79.31
73106;BME280;61559;50.476;15.588;2022-12-13T03:26:05;97100.99;;;-4.06;79.49
73106;BME280;61559;50.476;15.588;2022-12-13T03:28:38;97100.14;;;-4.08;79.67
73106;BME280;61559;50.476;15.588;2022-12-13T03:31:09;97094.58;;;-4.10;79.57
73106;BME280;61559;50.476;15.588;2022-12-13T03:33:41;97094.11;;;-4.11;79.60
73106;BME280;61559;50.476;15.588;2022-12-13T03:36:12;97095.31;;;-4.09;79.70
73106;BME280;61559;50.476;15.588;2022-12-13T03:38:43;97096.27;;;-4.08;79.93
73106;BME280;61559;50.476;15.588;2022-12-13T03:41:24;97092.39;;;-4.09;79.94
73106;BME280;61559;50.476;15.588;2022-12-13T03:44:02;97096.17;;;-4.11;80.00
73106;BME280;61559;50.476;15.588;2022-12-13T03:46:33;97097.53;;;-4.13;80.02
73106;BME280;61559;50.476;15.588;2022-12-13T03:49:05;97098.90;;;-4.15;80.04
73106;BME280;61559;50.476;15.588;2022-12-13T03:51:36;97095.91;;;-4.14;80.07
73106;BME280;61559;50.476;15.588;2022-12-13T03:54:07;97091.78;;;-4.14;80.11
73106;BME280;61559;50.476;15.588;2022-12-13T03:56:38;97093.14;;;-4.17;80.05
73106;BME280;61559;50.476;15.588;2022-12-13T03:59:08;97091.09;;;-4.19;80.20
73106;BME280;61559;50.476;15.588;2022-12-13T04:01:40;97084.92;;;-4.20;80.04
73106;BME280;61559;50.476;15.588;2022-12-13T04:04:11;97084.01;;;-4.20;80.18
73106;BME280;61559;50.476;15.588;2022-12-13T04:06:42;97082.50;;;-4.21;80.18
73106;BME280;61559;50.476;15.588;2022-12-13T04:09:14;97079.09;;;-4.20;80.06
73106;BME280;61559;50.476;15.588;2022-12-13T04:11:45;97075.05;;;-4.19;80.02
73106;BME280;61559;50.476;15.588;2022-12-13T04:14:33;97070.83;;;-4.19;80.07
73106;BME280;61559;50.476;15.588;2022-12-13T04:17:04;97073.73;;;-4.19;79.99
73106;BME280;61559;50.476;15.588;2022-12-13T04:19:35;97077.06;;;-4.21;80.07
73106;BME280;61559;50.476;15.588;2022-12-13T04:22:06;97081.11;;;-4.25;80.02
73106;BME280;61559;50.476;15.588;2022-12-13T04:24:37;97083.31;;;-4.27;80.04
73106;BME280;61559;50.476;15.588;2022-12-13T04:27:08;97083.38;;;-4.29;80.22
73106;BME280;61559;50.476;15.588;2022-12-13T04:29:39;97081.17;;;-4.30;80.27
73106;BME280;61559;50.476;15.588;2022-12-13T04:32:10;97082.66;;;-4.30;80.47
73106;BME280;61559;50.476;15.588;2022-12-13T04:34:56;97079.88;;;-4.32;80.43
73106;BME280;61559;50.476;15.588;2022-12-13T04:37:30;97088.94;;;-4.31;80.53
73106;BME280;61559;50.476;15.588;2022-12-13T04:40:02;97087.63;;;-4.31;80.54
73106;BME280;61559;50.476;15.588;2022-12-13T04:42:34;97085.02;;;-4.30;80.56
73106;BME280;61559;50.476;15.588;2022-12-13T04:45:06;97082.64;;;-4.29;80.65
73106;BME280;61559;50.476;15.588;2022-12-13T04:47:37;97079.31;;;-4.26;80.66
73106;BME280;61559;50.476;15.588;2022-12-13T04:50:11;97080.56;;;-4.25;80.52
73106;BME280;61559;50.476;15.588;2022-12-13T04:52:42;97082.00;;;-4.23;80.42
73106;BME280;61559;50.476;15.588;2022-12-13T04:55:14;97080.54;;;-4.21;80.41
73106;BME280;61559;50.476;15.588;2022-12-13T04:57:45;97085.19;;;-4.19;80.27
73106;BME280;61559;50.476;15.588;2022-12-13T05:00:17;97092.02;;;-4.18;80.17
73106;BME280;61559;50.476;15.588;2022-12-13T05:02:50;97091.98;;;-4.19;80.09
73106;BME280;61559;50.476;15.588;2022-12-13T05:05:21;97089.95;;;-4.18;79.96
73106;BME280;61559;50.476;15.588;2022-12-13T05:07:52;97089.48;;;-4.16;79.68
73106;BME280;61559;50.476;15.588;2022-12-13T05:10:23;97087.02;;;-4.14;79.43
73106;BME280;61559;50.476;15.588;2022-12-13T05:13:06;97083.95;;;-4.13;79.00
73106;BME280;61559;50.476;15.588;2022-12-13T05:15:37;97082.81;;;-4.13;79.10
73106;BME280;61559;50.476;15.588;2022-12-13T05:18:08;97086.33;;;-4.14;79.00
73106;BME280;61559;50.476;15.588;2022-12-13T05:20:40;97085.20;;;-4.14;78.73
73106;BME280;61559;50.476;15.588;2022-12-13T05:23:10;97089.25;;;-4.15;76.78
73106;BME280;61559;50.476;15.588;2022-12-13T05:25:51;97090.73;;;-4.18;74.86
73106;BME280;61559;50.476;15.588;2022-12-13T05:28:22;97092.08;;;-4.22;74.01
73106;BME280;61559;50.476;15.588;2022-12-13T05:30:59;97088.63;;;-4.23;74.49
73106;BME280;61559;50.476;15.588;2022-12-13T05:33:52;97089.65;;;-4.23;74.89
73106;BME280;61559;50.476;15.588;2022-12-13T05:36:30;97088.34;;;-4.23;74.50
73106;BME280;61559;50.476;15.588;2022-12-13T05:39:02;97091.66;;;-4.22;74.84
73106;BME280;61559;50.476;15.588;2022-12-13T05:41:32;97090.66;;;-4.23;75.04
73106;BME280;61559;50.476;15.588;2022-12-13T05:44:05;97093.80;;;-4.24;75.76
73106;BME280;61559;50.476;15.588;2022-12-13T05:46:38;97089.81;;;-4.25;74.36
73106;BME280;61559;50.476;15.588;2022-12-13T05:49:10;97089.61;;;-4.27;73.77
73106;BME280;61559;50.476;15.588;2022-12-13T05:51:41;97083.60;;;-4.28;73.83
73106;BME280;61559;50.476;15.588;2022-12-13T05:54:12;97084.71;;;-4.28;73.20
73106;BME280;61559;50.476;15.588;2022-12-13T05:56:43;97089.00;;;-4.27;73.07
73106;BME280;61559;50.476;15.588;2022-12-13T05:59:14;97085.42;;;-4.31;71.78
73106;BME280;61559;50.476;15.588;2022-12-13T06:01:45;97085.62;;;-4.31;72.67
73106;BME280;61559;50.476;15.588;2022-12-13T06:04:16;97090.93;;;-4.32;72.91
73106;BME280;61559;50.476;15.588;2022-12-13T06:06:51;97092.38;;;-4.32;72.68
73106;BME280;61559;50.476;15.588;2022-12-13T06:09:23;97089.41;;;-4.32;72.74
73106;BME280;61559;50.476;15.588;2022-12-13T06:11:54;97091.22;;;-4.32;72.67
73106;BME280;61559;50.476;15.588;2022-12-13T06:14:30;97091.85;;;-4.31;72.83
73106;BME280;61559;50.476;15.588;2022-12-13T06:17:01;97098.06;;;-4.30;72.61
73106;BME280;61559;50.476;15.588;2022-12-13T06:19:32;97096.92;;;-4.29;72.61
73106;BME280;61559;50.476;15.588;2022-12-13T06:22:03;97098.30;;;-4.25;72.78
73106;BME280;61559;50.476;15.588;2022-12-13T06:24:34;97101.59;;;-4.24;72.85
73106;BME280;61559;50.476;15.588;2022-12-13T06:27:15;97101.41;;;-4.23;72.90
73106;BME280;61559;50.476;15.588;2022-12-13T06:30:03;97102.60;;;-4.24;72.76
73106;BME280;61559;50.476;15.588;2022-12-13T06:32:33;97107.08;;;-4.24;72.90
73106;BME280;61559;50.476;15.588;2022-12-13T06:35:13;97110.27;;;-4.25;72.82
73106;BME280;61559;50.476;15.588;2022-12-13T06:37:59;97109.70;;;-4.26;72.96
73106;BME280;61559;50.476;15.588;2022-12-13T06:40:41;97113.85;;;-4.24;73.25
73106;BME280;61559;50.476;15.588;2022-12-13T06:43:12;97116.94;;;-4.26;72.80
73106;BME280;61559;50.476;15.588;2022-12-13T06:45:43;97115.13;;;-4.26;72.70
73106;BME280;61559;50.476;15.588;2022-12-13T06:48:14;97108.13;;;-4.26;72.83
73106;BME280;61559;50.476;15.588;2022-12-13T06:50:49;97113.09;;;-4.25;72.91
73106;BME280;61559;50.476;15.588;2022-12-13T06:53:20;97116.86;;;-4.27;72.84
73106;BME280;61559;50.476;15.588;2022-12-13T06:55:53;97119.92;;;-4.31;72.75
73106;BME280;61559;50.476;15.588;2022-12-13T06:58:24;97123.05;;;-4.32;72.16
73106;BME280;61559;50.476;15.588;2022-12-13T07:01:03;97125.80;;;-4.33;72.00
73106;BME280;61559;50.476;15.588;2022-12-13T07:03:43;97124.61;;;-4.32;71.70
73106;BME280;61559;50.476;15.588;2022-12-13T07:06:16;97127.02;;;-4.32;71.74
73106;BME280;61559;50.476;15.588;2022-12-13T07:08:51;97128.67;;;-4.30;71.65
73106;BME280;61559;50.476;15.588;2022-12-13T07:11:24;97127.80;;;-4.28;71.29
73106;BME280;61559;50.476;15.588;2022-12-13T07:13:56;97128.20;;;-4.26;71.44
73106;BME280;61559;50.476;15.588;2022-12-13T07:16:26;97129.20;;;-4.24;71.36
73106;BME280;61559;50.476;15.588;2022-12-13T07:18:58;97130.97;;;-4.23;71.54
73106;BME280;61559;50.476;15.588;2022-12-13T07:21:30;97129.16;;;-4.23;71.09
73106;BME280;61559;50.476;15.588;2022-12-13T07:24:01;97134.08;;;-4.26;70.86
73106;BME280;61559;50.476;15.588;2022-12-13T07:26:32;97132.27;;;-4.28;71.17
73106;BME280;61559;50.476;15.588;2022-12-13T07:29:04;97134.71;;;-4.27;71.37
73106;BME280;61559;50.476;15.588;2022-12-13T07:31:36;97137.54;;;-4.27;71.69
73106;BME280;61559;50.476;15.588;2022-12-13T07:34:07;97140.90;;;-4.25;72.06
73106;BME280;61559;50.476;15.588;2022-12-13T07:36:44;97143.80;;;-4.22;72.06
73106;BME280;61559;50.476;15.588;2022-12-13T07:39:15;97142.05;;;-4.20;72.45
73106;BME280;61559;50.476;15.588;2022-12-13T07:41:46;97142.88;;;-4.16;72.41
73106;BME280;61559;50.476;15.588;2022-12-13T07:44:17;97141.72;;;-4.12;72.30
73106;BME280;61559;50.476;15.588;2022-12-13T07:46:48;97144.18;;;-4.07;72.18
73106;BME280;61559;50.476;15.588;2022-12-13T07:49:20;97146.25;;;-4.04;72.12
73106;BME280;61559;50.476;15.588;2022-12-13T07:51:51;97146.11;;;-4.01;72.34
73106;BME280;61559;50.476;15.588;2022-12-13T07:54:22;97144.23;;;-3.97;72.22
73106;BME280;61559;50.476;15.588;2022-12-13T07:56:53;97146.94;;;-3.97;72.00
73106;BME280;61559;50.476;15.588;2022-12-13T07:59:32;97148.06;;;-4.02;72.03
73106;BME280;61559;50.476;15.588;2022-12-13T08:02:03;97146.84;;;-4.04;72.07
73106;BME280;61559;50.476;15.588;2022-12-13T08:04:35;97147.27;;;-4.04;72.65
73106;BME280;61559;50.476;15.588;2022-12-13T08:07:08;97146.52;;;-4.01;72.62
73106;BME280;61559;50.476;15.588;2022-12-13T08:09:39;97142.61;;;-4.00;72.58
73106;BME280;61559;50.476;15.588;2022-12-13T08:12:10;97143.27;;;-4.00;72.14
73106;BME280;61559;50.476;15.588;2022-12-13T08:14:51;97145.96;;;-4.01;71.57
73106;BME280;61559;50.476;15.588;2022-12-13T08:17:22;97148.16;;;-4.02;71.52
73106;BME280;61559;50.476;15.588;2022-12-13T08:19:52;97151.22;;;-4.02;71.54
73106;BME280;61559;50.476;15.588;2022-12-13T08:22:23;97154.34;;;-4.04;70.84
73106;BME280;61559;50.476;15.588;2022-12-13T08:24:54;97153.23;;;-4.07;70.78
73106;BME280;61559;50.476;15.588;2022-12-13T08:27:25;97150.65;;;-4.08;71.12
73106;BME280;61559;50.476;15.588;2022-12-13T08:29:58;97153.39;;;-4.07;71.43
73106;BME280;61559;50.476;15.588;2022-12-13T08:32:29;97156.44;;;-4.03;71.70
73106;BME280;61559;50.476;15.588;2022-12-13T08:35:00;97154.11;;;-3.98;71.87
73106;BME280;61559;50.476;15.588;2022-12-13T08:37:31;97156.30;;;-3.92;71.54
73106;BME280;61559;50.476;15.588;2022-12-13T08:40:02;97157.92;;;-3.90;71.65
73106;BME280;61559;50.476;15.588;2022-12-13T08:42:35;97160.86;;;-3.88;71.76
73106;BME280;61559;50.476;15.588;2022-12-13T08:45:07;97164.02;;;-3.83;71.52
73106;BME280;61559;50.476;15.588;2022-12-13T08:47:38;97168.13;;;-3.81;71.34
73106;BME280;61559;50.476;15.588;2022-12-13T08:50:11;97161.36;;;-3.80;71.36
73106;BME280;61559;50.476;15.588;2022-12-13T08:52:42;97158.48;;;-3.78;71.30
73106;BME280;61559;50.476;15.588;2022-12-13T08:55:15;97160.99;;;-3.78;71.39
73106;BME280;61559;50.476;15.588;2022-12-13T08:57:52;97164.39;;;-3.80;70.98
73106;BME280;61559;50.476;15.588;2022-12-13T09:00:23;97165.10;;;-3.79;71.36
73106;BME280;61559;50.476;15.588;2022-12-13T09:02:57;97171.33;;;-3.74;71.28
73106;BME280;61559;50.476;15.588;2022-12-13T09:05:29;97169.77;;;-3.70;71.07
73106;BME280;61559;50.476;15.588;2022-12-13T09:08:03;97171.60;;;-3.66;70.77
73106;BME280;61559;50.476;15.588;2022-12-13T09:10:57;97170.08;;;-3.61;70.37
73106;BME280;61559;50.476;15.588;2022-12-13T09:13:31;97173.16;;;-3.55;70.43
73106;BME280;61559;50.476;15.588;2022-12-13T09:16:14;97177.71;;;-3.48;70.14
73106;BME280;61559;50.476;15.588;2022-12-13T09:18:53;97171.36;;;-3.42;70.48
73106;BME280;61559;50.476;15.588;2022-12-13T09:21:25;97176.71;;;-3.33;70.47
73106;BME280;61559;50.476;15.588;2022-12-13T09:24:01;97177.41;;;-3.27;69.76
73106;BME280;61559;50.476;15.588;2022-12-13T09:26:32;97180.98;;;-3.25;69.66
73106;BME280;61559;50.476;15.588;2022-12-13T09:29:08;97182.69;;;-3.21;69.40
73106;BME280;61559;50.476;15.588;2022-12-13T09:31:40;97178.70;;;-3.19;69.34
73106;BME280;61559;50.476;15.588;2022-12-13T09:34:11;97171.44;;;-3.17;69.07
73106;BME280;61559;50.476;15.588;2022-12-13T09:36:42;97169.17;;;-3.17;68.87
73106;BME280;61559;50.476;15.588;2022-12-13T09:39:14;97163.73;;;-3.14;69.12
73106;BME280;61559;50.476;15.588;2022-12-13T09:41:47;97166.27;;;-3.13;68.77
73106;BME280;61559;50.476;15.588;2022-12-13T09:44:24;97164.92;;;-3.15;68.63
73106;BME280;61559;50.476;15.588;2022-12-13T09:47:08;97168.63;;;-3.11;69.34
73106;BME280;61559;50.476;15.588;2022-12-13T09:49:44;97172.02;;;-3.07;69.10
73106;BME280;61559;50.476;15.588;2022-12-13T09:52:23;97170.93;;;-3.06;68.95
73106;BME280;61559;50.476;15.588;2022-12-13T09:55:03;97168.88;;;-3.05;68.92
73106;BME280;61559;50.476;15.588;2022-12-13T09:57:40;97168.12;;;-3.05;68.79
73106;BME280;61559;50.476;15.588;2022-12-13T10:00:16;97170.39;;;-3.05;68.64
73106;BME280;61559;50.476;15.588;2022-12-13T10:02:49;97172.09;;;-3.06;67.94
73106;BME280;61559;50.476;15.588;2022-12-13T10:05:28;97164.58;;;-3.12;67.68
73106;BME280;61559;50.476;15.588;2022-12-13T10:08:11;97169.02;;;-3.17;67.66
73106;BME280;61559;50.476;15.588;2022-12-13T10:10:43;97172.11;;;-3.16;67.92
73106;BME280;61559;50.476;15.588;2022-12-13T10:13:14;97171.85;;;-3.17;67.69
73106;BME280;61559;50.476;15.588;2022-12-13T10:15:49;97171.33;;;-3.21;67.09
73106;BME280;61559;50.476;15.588;2022-12-13T10:18:30;97173.58;;;-3.25;67.07
73106;BME280;61559;50.476;15.588;2022-12-13T10:21:06;97167.91;;;-3.26;67.32
73106;BME280;61559;50.476;15.588;2022-12-13T10:23:39;97170.44;;;-3.23;67.62
73106;BME280;61559;50.476;15.588;2022-12-13T10:26:35;97168.64;;;-3.18;67.86
73106;BME280;61559;50.476;15.588;2022-12-13T10:29:07;97164.42;;;-3.15;67.53
73106;BME280;61559;50.476;15.588;2022-12-13T10:31:45;97163.31;;;-3.15;68.06
73106;BME280;61559;50.476;15.588;2022-12-13T10:34:23;97162.99;;;-3.13;68.87
73106;BME280;61559;50.476;15.588;2022-12-13T10:36:55;97162.55;;;-3.09;69.34
73106;BME280;61559;50.476;15.588;2022-12-13T10:39:39;97160.88;;;-3.07;69.53
73106;BME280;61559;50.476;15.588;2022-12-13T10:42:14;97159.52;;;-3.07;69.11
73106;BME280;61559;50.476;15.588;2022-12-13T10:45:09;97160.41;;;-3.09;69.12
73106;BME280;61559;50.476;15.588;2022-12-13T10:47:42;97157.13;;;-3.06;69.38
73106;BME280;61559;50.476;15.588;2022-12-13T10:50:24;97157.14;;;-3.05;69.14
73106;BME280;61559;50.476;15.588;2022-12-13T10:52:57;97154.62;;;-3.08;69.30
73106;BME280;61559;50.476;15.588;2022-12-13T10:55:31;97153.23;;;-3.10;69.34
73106;BME280;61559;50.476;15.588;2022-12-13T10:58:04;97151.27;;;-3.10;69.25
73106;BME280;61559;50.476;15.588;2022-12-13T11:00:41;97147.08;;;-3.10;69.25
73106;BME280;61559;50.476;15.588;2022-12-13T11:03:30;97147.31;;;-3.08;69.31
73106;BME280;61559;50.476;15.588;2022-12-13T11:06:09;97146.48;;;-3.06;69.22
73106;BME280;61559;50.476;15.588;2022-12-13T11:08:42;97141.15;;;-3.07;69.19
73106;BME280;61559;50.476;15.588;2022-12-13T11:11:16;97141.98;;;-3.01;69.22
73106;BME280;61559;50.476;15.588;2022-12-13T11:13:52;97142.45;;;-2.97;69.18
73106;BME280;61559;50.476;15.588;2022-12-13T11:16:26;97140.59;;;-2.94;69.01
73106;BME280;61559;50.476;15.588;2022-12-13T11:19:03;97139.92;;;-2.94;68.66
73106;BME280;61559;50.476;15.588;2022-12-13T11:21:37;97136.64;;;-2.92;68.46
73106;BME280;61559;50.476;15.588;2022-12-13T11:24:19;97129.81;;;-2.93;68.38
73106;BME280;61559;50.476;15.588;2022-12-13T11:26:55;97134.55;;;-2.94;68.72
73106;BME280;61559;50.476;15.588;2022-12-13T11:29:46;97126.70;;;-2.93;68.49
73106;BME280;61559;50.476;15.588;2022-12-13T11:32:30;97126.34;;;-2.90;68.72
73106;BME280;61559;50.476;15.588;2022-12-13T11:35:15;97123.96;;;-2.84;68.57
73106;BME280;61559;50.476;15.588;2022-12-13T11:37:53;97122.88;;;-2.79;68.72
73106;BME280;61559;50.476;15.588;2022-12-13T11:40:27;97120.31;;;-2.75;68.32
73106;BME280;61559;50.476;15.588;2022-12-13T11:43:02;97120.39;;;-2.74;68.23
73106;BME280;61559;50.476;15.588;2022-12-13T11:45:39;97116.23;;;-2.75;68.10
73106;BME280;61559;50.476;15.588;2022-12-13T11:48:18;97120.20;;;-2.73;68.15
73106;BME280;61559;50.476;15.588;2022-12-13T11:50:53;97121.32;;;-2.72;68.26
73106;BME280;61559;50.476;15.588;2022-12-13T11:53:31;97121.44;;;-2.67;68.63
73106;BME280;61559;50.476;15.588;2022-12-13T11:56:10;97118.83;;;-2.63;68.15
73106;BME280;61559;50.476;15.588;2022-12-13T11:58:49;97114.36;;;-2.60;68.12
73106;BME280;61559;50.476;15.588;2022-12-13T12:01:38;97109.06;;;-2.61;67.49
73106;BME280;61559;50.476;15.588;2022-12-13T12:04:18;97110.21;;;-2.62;67.98
73106;BME280;61559;50.476;15.588;2022-12-13T12:06:57;97112.34;;;-2.59;68.13
73106;BME280;61559;50.476;15.588;2022-12-13T12:09:52;97115.70;;;-2.55;68.13
73106;BME280;61559;50.476;15.588;2022-12-13T12:12:30;97117.08;;;-2.53;67.83
73106;BME280;61559;50.476;15.588;2022-12-13T12:15:06;97120.33;;;-2.51;67.75
73106;BME280;61559;50.476;15.588;2022-12-13T12:17:45;97120.65;;;-2.50;67.69
73106;BME280;61559;50.476;15.588;2022-12-13T12:20:25;97120.96;;;-2.48;67.80
73106;BME280;61559;50.476;15.588;2022-12-13T12:23:03;97121.05;;;-2.47;67.99
73106;BME280;61559;50.476;15.588;2022-12-13T12:25:45;97121.80;;;-2.43;67.87
73106;BME280;61559;50.476;15.588;2022-12-13T12:28:28;97122.41;;;-2.38;67.72
73106;BME280;61559;50.476;15.588;2022-12-13T12:31:19;97123.32;;;-2.42;67.42
73106;BME280;61559;50.476;15.588;2022-12-13T12:34:01;97121.89;;;-2.44;67.80
73106;BME280;61559;50.476;15.588;2022-12-13T12:36:43;97121.24;;;-2.43;67.98
73106;BME280;61559;50.476;15.588;2022-12-13T12:39:43;97122.42;;;-2.41;67.73
73106;BME280;61559;50.476;15.588;2022-12-13T12:42:31;97119.70;;;-2.38;67.59
73106;BME280;61559;50.476;15.588;2022-12-13T12:45:32;97120.03;;;-2.39;67.26
73106;BME280;61559;50.476;15.588;2022-12-13T12:48:39;97118.95;;;-2.48;67.84
73106;BME280;61559;50.476;15.588;2022-12-13T12:51:36;97120.83;;;-2.54;67.35
73106;BME280;61559;50.476;15.588;2022-12-13T12:54:26;97122.45;;;-2.63;67.30
73106;BME280;61559;50.476;15.588;2022-12-13T12:57:08;97121.21;;;-2.72;67.56
73106;BME280;61559;50.476;15.588;2022-12-13T12:59:54;97122.80;;;-2.77;68.15
73106;BME280;61559;50.476;15.588;2022-12-13T13:02:37;97122.84;;;-2.79;68.32
73106;BME280;61559;50.476;15.588;2022-12-13T13:05:10;97122.67;;;-2.80;68.37
73106;BME280;61559;50.476;15.588;2022-12-13T13:07:47;97120.33;;;-2.84;68.11
73106;BME280;61559;50.476;15.588;2022-12-13T13:10:20;97119.10;;;-2.85;68.39
73106;BME280;61559;50.476;15.588;2022-12-13T13:12:55;97116.41;;;-2.84;68.53
73106;BME280;61559;50.476;15.588;2022-12-13T13:15:53;97119.54;;;-2.83;68.68
73106;BME280;61559;50.476;15.588;2022-12-13T13:18:46;97114.02;;;-2.82;68.67
73106;BME280;61559;50.476;15.588;2022-12-13T13:21:36;97114.18;;;-2.81;68.78
73106;BME280;61559;50.476;15.588;2022-12-13T13:24:30;97114.77;;;-2.79;68.91
73106;BME280;61559;50.476;15.588;2022-12-13T13:27:27;97114.86;;;-2.76;68.52
73106;BME280;61559;50.476;15.588;2022-12-13T13:30:14;97114.94;;;-2.77;68.59
73106;BME280;61559;50.476;15.588;2022-12-13T13:32:46;97115.84;;;-2.81;68.39
73106;BME280;61559;50.476;15.588;2022-12-13T13:42:08;97120.64;;;-2.74;68.86